sensor_id;sensor_type;location;lat;lon;timestamp;P1;durP1;ratioP1;P2;durP2;ratioP2
79412;SDS011;68863;49.528;11.010;2023-04-25T00:00:57;5.20;;;1.90;;
79412;SDS011;68863;49.528;11.010;2023-04-25T00:01:58;5.15;;;1.83;;
79412;SDS011;68863;49.528;11.010;2023-04-25T00:02:59;5.35;;;1.90;;
79412;SDS011;68863;49.528;11.010;2023-04-25T00:04:00;4.68;;;1.80;;
79412;SDS011;68863;49.528;11.010;2023-04-25T00:05:01;5.00;;;2.00;;
79412;SDS011;68863;49.528;11.010;2023-04-25T00:06:04;4.93;;;2.20;;
79412;SDS011;68863;49.528;11.010;2023-04-25T00:07:05;5.80;;;2.47;;
79412;SDS011;68863;49.528;11.010;2023-04-25T00:08:06;5.50;;;2.17;;
79412;SDS011;68863;49.528;11.010;2023-04-25T00:09:07;5.57;;;2.30;;
79412;SDS011;68863;49.528;11.010;2023-04-25T00:10:09;4.78;;;2.20;;
79412;SDS011;68863;49.528;11.010;2023-04-25T00:11:11;5.32;;;2.60;;
79412;SDS011;68863;49.528;11.010;2023-04-25T00:12:11;5.63;;;2.03;;
79412;SDS011;68863;49.528;11.010;2023-04-25T00:13:11;4.15;;;1.65;;
79412;SDS011;68863;49.528;11.010;2023-04-25T00:14:11;5.07;;;1.70;;
79412;SDS011;68863;49.528;11.010;2023-04-25T00:15:12;6.18;;;2.28;;
79412;SDS011;68863;49.528;11.010;2023-04-25T00:16:12;4.90;;;1.67;;
79412;SDS011;68863;49.528;11.010;2023-04-25T00:17:15;3.97;;;1.30;;
79412;SDS011;68863;49.528;11.010;2023-04-25T00:18:16;4.47;;;1.23;;
79412;SDS011;68863;49.528;11.010;2023-04-25T00:19:17;4.65;;;1.95;;
79412;SDS011;68863;49.528;11.010;2023-04-25T00:20:18;5.22;;;1.42;;
79412;SDS011;68863;49.528;11.010;2023-04-25T00:21:18;4.55;;;1.90;;
79412;SDS011;68863;49.528;11.010;2023-04-25T00:22:20;3.83;;;1.40;;
79412;SDS011;68863;49.528;11.010;2023-04-25T00:23:20;4.88;;;1.88;;
79412;SDS011;68863;49.528;11.010;2023-04-25T00:24:21;5.30;;;1.60;;
79412;SDS011;68863;49.528;11.010;2023-04-25T00:25:21;4.13;;;1.58;;
79412;SDS011;68863;49.528;11.010;2023-04-25T00:26:21;3.95;;;1.30;;
79412;SDS011;68863;49.528;11.010;2023-04-25T00:27:23;4.07;;;1.80;;
79412;SDS011;68863;49.528;11.010;2023-04-25T00:28:23;4.30;;;1.33;;
79412;SDS011;68863;49.528;11.010;2023-04-25T00:29:23;4.63;;;1.27;;
79412;SDS011;68863;49.528;11.010;2023-04-25T00:30:24;4.72;;;1.77;;
79412;SDS011;68863;49.528;11.010;2023-04-25T00:31:24;4.72;;;1.70;;
79412;SDS011;68863;49.528;11.010;2023-04-25T00:32:24;4.15;;;1.38;;
79412;SDS011;68863;49.528;11.010;2023-04-25T00:33:25;4.63;;;1.35;;
79412;SDS011;68863;49.528;11.010;2023-04-25T00:34:25;4.00;;;1.50;;
79412;SDS011;68863;49.528;11.010;2023-04-25T00:35:25;5.22;;;1.50;;
79412;SDS011;68863;49.528;11.010;2023-04-25T00:36:26;4.60;;;1.38;;
79412;SDS011;68863;49.528;11.010;2023-04-25T00:37:27;5.20;;;1.48;;
79412;SDS011;68863;49.528;11.010;2023-04-25T00:38:27;4.00;;;1.40;;
79412;SDS011;68863;49.528;11.010;2023-04-25T00:39:28;4.57;;;1.60;;
79412;SDS011;68863;49.528;11.010;2023-04-25T00:40:28;4.57;;;1.77;;
79412;SDS011;68863;49.528;11.010;2023-04-25T00:41:29;5.07;;;1.77;;
79412;SDS011;68863;49.528;11.010;2023-04-25T00:42:30;5.03;;;1.73;;
79412;SDS011;68863;49.528;11.010;2023-04-25T00:43:31;5.00;;;1.42;;
79412;SDS011;68863;49.528;11.010;2023-04-25T00:44:32;4.18;;;1.63;;
79412;SDS011;68863;49.528;11.010;2023-04-25T00:45:35;4.88;;;1.98;;
79412;SDS011;68863;49.528;11.010;2023-04-25T00:46:38;4.57;;;1.60;;
79412;SDS011;68863;49.528;11.010;2023-04-25T00:47:40;4.55;;;1.42;;
79412;SDS011;68863;49.528;11.010;2023-04-25T00:48:40;5.60;;;1.55;;
79412;SDS011;68863;49.528;11.010;2023-04-25T00:49:41;4.40;;;1.55;;
79412;SDS011;68863;49.528;11.010;2023-04-25T00:50:41;4.87;;;2.00;;
79412;SDS011;68863;49.528;11.010;2023-04-25T00:51:43;4.60;;;1.60;;
79412;SDS011;68863;49.528;11.010;2023-04-25T00:52:44;4.85;;;1.60;;
79412;SDS011;68863;49.528;11.010;2023-04-25T00:53:45;4.82;;;1.60;;
79412;SDS011;68863;49.528;11.010;2023-04-25T00:54:46;4.60;;;1.90;;
79412;SDS011;68863;49.528;11.010;2023-04-25T00:55:46;5.57;;;2.15;;
79412;SDS011;68863;49.528;11.010;2023-04-25T00:56:47;4.82;;;1.48;;
79412;SDS011;68863;49.528;11.010;2023-04-25T00:57:48;4.82;;;1.85;;
79412;SDS011;68863;49.528;11.010;2023-04-25T00:58:49;4.82;;;1.60;;
79412;SDS011;68863;49.528;11.010;2023-04-25T01:00:52;4.63;;;1.70;;
79412;SDS011;68863;49.528;11.010;2023-04-25T01:01:53;5.47;;;1.70;;
79412;SDS011;68863;49.528;11.010;2023-04-25T01:02:53;7.20;;;2.13;;
79412;SDS011;68863;49.528;11.010;2023-04-25T01:03:53;3.83;;;1.50;;
79412;SDS011;68863;49.528;11.010;2023-04-25T01:04:54;5.00;;;1.90;;
79412;SDS011;68863;49.528;11.010;2023-04-25T01:05:55;4.72;;;2.40;;
79412;SDS011;68863;49.528;11.010;2023-04-25T01:06:56;4.63;;;1.50;;
79412;SDS011;68863;49.528;11.010;2023-04-25T01:07:57;5.63;;;1.50;;
79412;SDS011;68863;49.528;11.010;2023-04-25T01:08:58;4.45;;;1.38;;
79412;SDS011;68863;49.528;11.010;2023-04-25T01:09:59;5.22;;;1.85;;
79412;SDS011;68863;49.528;11.010;2023-04-25T01:11:00;4.47;;;1.88;;
79412;SDS011;68863;49.528;11.010;2023-04-25T01:12:01;4.60;;;2.10;;
79412;SDS011;68863;49.528;11.010;2023-04-25T01:13:02;6.13;;;1.40;;
79412;SDS011;68863;49.528;11.010;2023-04-25T01:14:03;5.05;;;1.67;;
79412;SDS011;68863;49.528;11.010;2023-04-25T01:15:04;4.53;;;1.80;;
79412;SDS011;68863;49.528;11.010;2023-04-25T01:16:04;3.85;;;1.30;;
79412;SDS011;68863;49.528;11.010;2023-04-25T01:17:05;5.00;;;2.08;;
79412;SDS011;68863;49.528;11.010;2023-04-25T01:18:07;5.18;;;1.88;;
79412;SDS011;68863;49.528;11.010;2023-04-25T01:19:09;4.93;;;1.80;;
79412;SDS011;68863;49.528;11.010;2023-04-25T01:20:12;4.00;;;1.50;;
79412;SDS011;68863;49.528;11.010;2023-04-25T01:21:14;3.83;;;1.42;;
79412;SDS011;68863;49.528;11.010;2023-04-25T01:22:14;4.72;;;1.80;;
79412;SDS011;68863;49.528;11.010;2023-04-25T01:23:15;3.63;;;1.58;;
79412;SDS011;68863;49.528;11.010;2023-04-25T01:24:15;4.60;;;1.80;;
79412;SDS011;68863;49.528;11.010;2023-04-25T01:25:16;4.55;;;1.65;;
79412;SDS011;68863;49.528;11.010;2023-04-25T01:26:17;3.95;;;1.85;;
79412;SDS011;68863;49.528;11.010;2023-04-25T01:27:17;4.55;;;1.10;;
79412;SDS011;68863;49.528;11.010;2023-04-25T01:28:18;4.88;;;1.63;;
79412;SDS011;68863;49.528;11.010;2023-04-25T01:29:19;4.68;;;1.35;;
79412;SDS011;68863;49.528;11.010;2023-04-25T01:30:20;4.80;;;1.40;;
79412;SDS011;68863;49.528;11.010;2023-04-25T01:31:20;3.88;;;1.20;;
79412;SDS011;68863;49.528;11.010;2023-04-25T01:32:21;4.53;;;1.90;;
79412;SDS011;68863;49.528;11.010;2023-04-25T01:33:23;4.05;;;1.38;;
79412;SDS011;68863;49.528;11.010;2023-04-25T01:34:24;4.95;;;1.98;;
79412;SDS011;68863;49.528;11.010;2023-04-25T01:35:25;5.22;;;1.33;;
79412;SDS011;68863;49.528;11.010;2023-04-25T01:36:25;3.95;;;1.45;;
79412;SDS011;68863;49.528;11.010;2023-04-25T01:37:27;4.25;;;1.58;;
79412;SDS011;68863;49.528;11.010;2023-04-25T01:38:27;5.47;;;1.60;;
79412;SDS011;68863;49.528;11.010;2023-04-25T01:39:28;4.47;;;1.60;;
79412;SDS011;68863;49.528;11.010;2023-04-25T01:40:28;5.00;;;1.42;;
79412;SDS011;68863;49.528;11.010;2023-04-25T01:41:29;4.22;;;1.48;;
79412;SDS011;68863;49.528;11.010;2023-04-25T01:42:29;3.85;;;1.30;;
79412;SDS011;68863;49.528;11.010;2023-04-25T01:43:30;4.32;;;1.85;;
79412;SDS011;68863;49.528;11.010;2023-04-25T01:44:30;4.50;;;1.80;;
79412;SDS011;68863;49.528;11.010;2023-04-25T01:45:30;4.53;;;1.80;;
79412;SDS011;68863;49.528;11.010;2023-04-25T01:46:31;4.97;;;2.10;;
79412;SDS011;68863;49.528;11.010;2023-04-25T01:47:33;4.20;;;1.65;;
79412;SDS011;68863;49.528;11.010;2023-04-25T01:48:35;4.40;;;1.60;;
79412;SDS011;68863;49.528;11.010;2023-04-25T01:49:35;4.60;;;1.58;;
79412;SDS011;68863;49.528;11.010;2023-04-25T01:50:38;4.63;;;1.50;;
79412;SDS011;68863;49.528;11.010;2023-04-25T01:51:39;3.97;;;1.38;;
79412;SDS011;68863;49.528;11.010;2023-04-25T01:52:39;4.20;;;1.45;;
79412;SDS011;68863;49.528;11.010;2023-04-25T01:53:40;5.65;;;1.52;;
79412;SDS011;68863;49.528;11.010;2023-04-25T01:54:40;3.70;;;1.23;;
79412;SDS011;68863;49.528;11.010;2023-04-25T01:55:44;5.25;;;1.42;;
79412;SDS011;68863;49.528;11.010;2023-04-25T01:56:49;4.63;;;1.40;;
79412;SDS011;68863;49.528;11.010;2023-04-25T01:57:50;3.97;;;1.23;;
79412;SDS011;68863;49.528;11.010;2023-04-25T01:58:50;4.25;;;1.73;;
79412;SDS011;68863;49.528;11.010;2023-04-25T01:59:51;4.13;;;1.20;;
79412;SDS011;68863;49.528;11.010;2023-04-25T02:00:54;4.97;;;1.95;;
79412;SDS011;68863;49.528;11.010;2023-04-25T02:01:55;4.47;;;1.73;;
79412;SDS011;68863;49.528;11.010;2023-04-25T02:02:57;4.20;;;1.30;;
79412;SDS011;68863;49.528;11.010;2023-04-25T02:03:58;5.75;;;2.20;;
79412;SDS011;68863;49.528;11.010;2023-04-25T02:04:58;4.95;;;1.48;;
79412;SDS011;68863;49.528;11.010;2023-04-25T02:05:58;4.88;;;1.55;;
79412;SDS011;68863;49.528;11.010;2023-04-25T02:06:59;4.00;;;1.10;;
79412;SDS011;68863;49.528;11.010;2023-04-25T02:07:59;4.45;;;1.23;;
79412;SDS011;68863;49.528;11.010;2023-04-25T02:08:59;4.40;;;1.23;;
79412;SDS011;68863;49.528;11.010;2023-04-25T02:10:00;3.93;;;1.40;;
79412;SDS011;68863;49.528;11.010;2023-04-25T02:11:00;4.65;;;1.58;;
79412;SDS011;68863;49.528;11.010;2023-04-25T02:12:00;4.20;;;1.35;;
79412;SDS011;68863;49.528;11.010;2023-04-25T02:13:02;4.72;;;1.52;;
79412;SDS011;68863;49.528;11.010;2023-04-25T02:14:02;4.50;;;1.27;;
79412;SDS011;68863;49.528;11.010;2023-04-25T02:15:03;5.63;;;1.85;;
79412;SDS011;68863;49.528;11.010;2023-04-25T02:16:04;4.18;;;1.50;;
79412;SDS011;68863;49.528;11.010;2023-04-25T02:17:04;5.15;;;1.55;;
79412;SDS011;68863;49.528;11.010;2023-04-25T02:18:05;4.75;;;1.13;;
79412;SDS011;68863;49.528;11.010;2023-04-25T02:19:06;5.07;;;1.63;;
79412;SDS011;68863;49.528;11.010;2023-04-25T02:20:06;4.68;;;1.65;;
79412;SDS011;68863;49.528;11.010;2023-04-25T02:21:07;4.20;;;1.80;;
79412;SDS011;68863;49.528;11.010;2023-04-25T02:22:07;5.40;;;1.85;;
79412;SDS011;68863;49.528;11.010;2023-04-25T02:23:07;4.10;;;1.55;;
79412;SDS011;68863;49.528;11.010;2023-04-25T02:24:08;4.60;;;1.70;;
79412;SDS011;68863;49.528;11.010;2023-04-25T02:25:09;4.00;;;1.48;;
79412;SDS011;68863;49.528;11.010;2023-04-25T02:26:10;4.22;;;1.80;;
79412;SDS011;68863;49.528;11.010;2023-04-25T02:27:13;4.50;;;2.20;;
79412;SDS011;68863;49.528;11.010;2023-04-25T02:28:13;5.50;;;1.85;;
79412;SDS011;68863;49.528;11.010;2023-04-25T02:29:13;5.35;;;1.75;;
79412;SDS011;68863;49.528;11.010;2023-04-25T02:30:15;5.35;;;1.88;;
79412;SDS011;68863;49.528;11.010;2023-04-25T02:31:15;6.00;;;1.70;;
79412;SDS011;68863;49.528;11.010;2023-04-25T02:32:16;5.30;;;1.70;;
79412;SDS011;68863;49.528;11.010;2023-04-25T02:33:16;5.07;;;1.60;;
79412;SDS011;68863;49.528;11.010;2023-04-25T02:34:16;4.95;;;1.63;;
79412;SDS011;68863;49.528;11.010;2023-04-25T02:35:17;4.28;;;1.48;;
79412;SDS011;68863;49.528;11.010;2023-04-25T02:36:17;7.85;;;2.03;;
79412;SDS011;68863;49.528;11.010;2023-04-25T02:37:18;5.47;;;1.65;;
79412;SDS011;68863;49.528;11.010;2023-04-25T02:38:18;5.22;;;1.52;;
79412;SDS011;68863;49.528;11.010;2023-04-25T02:39:18;5.88;;;1.80;;
79412;SDS011;68863;49.528;11.010;2023-04-25T02:40:18;4.90;;;1.70;;
79412;SDS011;68863;49.528;11.010;2023-04-25T02:41:19;5.38;;;1.90;;
79412;SDS011;68863;49.528;11.010;2023-04-25T02:42:20;4.90;;;1.55;;
79412;SDS011;68863;49.528;11.010;2023-04-25T02:43:21;5.63;;;2.15;;
79412;SDS011;68863;49.528;11.010;2023-04-25T02:44:21;4.22;;;1.67;;
79412;SDS011;68863;49.528;11.010;2023-04-25T02:45:25;4.40;;;1.80;;
79412;SDS011;68863;49.528;11.010;2023-04-25T02:46:25;4.20;;;1.60;;
79412;SDS011;68863;49.528;11.010;2023-04-25T02:47:25;4.72;;;1.75;;
79412;SDS011;68863;49.528;11.010;2023-04-25T02:48:26;4.53;;;1.48;;
79412;SDS011;68863;49.528;11.010;2023-04-25T02:49:26;5.10;;;1.90;;
79412;SDS011;68863;49.528;11.010;2023-04-25T02:50:26;4.47;;;2.05;;
79412;SDS011;68863;49.528;11.010;2023-04-25T02:51:27;4.15;;;1.40;;
79412;SDS011;68863;49.528;11.010;2023-04-25T02:52:27;4.70;;;1.60;;
79412;SDS011;68863;49.528;11.010;2023-04-25T02:53:27;4.57;;;1.53;;
79412;SDS011;68863;49.528;11.010;2023-04-25T02:54:28;3.90;;;1.50;;
79412;SDS011;68863;49.528;11.010;2023-04-25T02:55:28;4.25;;;1.33;;
79412;SDS011;68863;49.528;11.010;2023-04-25T02:56:28;5.03;;;1.57;;
79412;SDS011;68863;49.528;11.010;2023-04-25T02:57:28;4.72;;;2.17;;
79412;SDS011;68863;49.528;11.010;2023-04-25T02:58:29;4.25;;;1.30;;
79412;SDS011;68863;49.528;11.010;2023-04-25T02:59:29;4.57;;;1.70;;
79412;SDS011;68863;49.528;11.010;2023-04-25T03:00:29;4.85;;;1.60;;
79412;SDS011;68863;49.528;11.010;2023-04-25T03:01:30;5.78;;;1.67;;
79412;SDS011;68863;49.528;11.010;2023-04-25T03:02:30;4.43;;;1.67;;
79412;SDS011;68863;49.528;11.010;2023-04-25T03:03:30;4.83;;;1.80;;
79412;SDS011;68863;49.528;11.010;2023-04-25T03:04:30;4.10;;;1.25;;
79412;SDS011;68863;49.528;11.010;2023-04-25T03:05:31;6.60;;;1.52;;
79412;SDS011;68863;49.528;11.010;2023-04-25T03:06:31;5.15;;;1.83;;
79412;SDS011;68863;49.528;11.010;2023-04-25T03:07:32;4.47;;;1.85;;
79412;SDS011;68863;49.528;11.010;2023-04-25T03:08:32;5.07;;;1.80;;
79412;SDS011;68863;49.528;11.010;2023-04-25T03:09:34;4.47;;;2.05;;
79412;SDS011;68863;49.528;11.010;2023-04-25T03:10:34;3.92;;;1.42;;
79412;SDS011;68863;49.528;11.010;2023-04-25T03:11:35;5.80;;;1.50;;
79412;SDS011;68863;49.528;11.010;2023-04-25T03:12:35;4.70;;;1.50;;
79412;SDS011;68863;49.528;11.010;2023-04-25T03:13:36;4.40;;;1.90;;
79412;SDS011;68863;49.528;11.010;2023-04-25T03:14:36;4.75;;;2.08;;
79412;SDS011;68863;49.528;11.010;2023-04-25T03:15:37;4.28;;;1.65;;
79412;SDS011;68863;49.528;11.010;2023-04-25T03:16:37;4.45;;;1.55;;
79412;SDS011;68863;49.528;11.010;2023-04-25T03:17:38;4.32;;;1.45;;
79412;SDS011;68863;49.528;11.010;2023-04-25T03:18:38;4.63;;;1.77;;
79412;SDS011;68863;49.528;11.010;2023-04-25T03:19:38;6.80;;;2.13;;
79412;SDS011;68863;49.528;11.010;2023-04-25T03:20:39;5.22;;;2.00;;
79412;SDS011;68863;49.528;11.010;2023-04-25T03:22:41;4.43;;;1.70;;
79412;SDS011;68863;49.528;11.010;2023-04-25T03:23:42;4.63;;;1.85;;
79412;SDS011;68863;49.528;11.010;2023-04-25T03:24:42;4.45;;;1.65;;
79412;SDS011;68863;49.528;11.010;2023-04-25T03:25:42;4.65;;;1.90;;
79412;SDS011;68863;49.528;11.010;2023-04-25T03:26:43;4.82;;;1.92;;
79412;SDS011;68863;49.528;11.010;2023-04-25T03:27:43;5.20;;;2.13;;
79412;SDS011;68863;49.528;11.010;2023-04-25T03:28:43;4.80;;;1.83;;
79412;SDS011;68863;49.528;11.010;2023-04-25T03:29:43;5.72;;;2.15;;
79412;SDS011;68863;49.528;11.010;2023-04-25T03:30:44;5.43;;;2.05;;
79412;SDS011;68863;49.528;11.010;2023-04-25T03:31:44;6.90;;;2.00;;
79412;SDS011;68863;49.528;11.010;2023-04-25T03:32:45;5.32;;;2.35;;
79412;SDS011;68863;49.528;11.010;2023-04-25T03:33:45;5.32;;;2.13;;
79412;SDS011;68863;49.528;11.010;2023-04-25T03:34:45;5.77;;;2.27;;
79412;SDS011;68863;49.528;11.010;2023-04-25T03:35:46;6.72;;;2.30;;
79412;SDS011;68863;49.528;11.010;2023-04-25T03:36:46;6.35;;;2.33;;
79412;SDS011;68863;49.528;11.010;2023-04-25T03:37:47;6.53;;;2.40;;
79412;SDS011;68863;49.528;11.010;2023-04-25T03:38:47;6.50;;;2.38;;
79412;SDS011;68863;49.528;11.010;2023-04-25T03:39:48;6.40;;;2.70;;
79412;SDS011;68863;49.528;11.010;2023-04-25T03:40:49;6.50;;;2.47;;
79412;SDS011;68863;49.528;11.010;2023-04-25T03:41:50;8.15;;;2.75;;
79412;SDS011;68863;49.528;11.010;2023-04-25T03:42:51;6.00;;;2.45;;
79412;SDS011;68863;49.528;11.010;2023-04-25T03:43:51;6.33;;;2.50;;
79412;SDS011;68863;49.528;11.010;2023-04-25T03:44:51;5.80;;;2.30;;
79412;SDS011;68863;49.528;11.010;2023-04-25T03:45:51;5.70;;;2.40;;
79412;SDS011;68863;49.528;11.010;2023-04-25T03:46:53;5.80;;;2.60;;
79412;SDS011;68863;49.528;11.010;2023-04-25T03:47:53;6.37;;;2.50;;
79412;SDS011;68863;49.528;11.010;2023-04-25T03:48:54;7.90;;;2.57;;
79412;SDS011;68863;49.528;11.010;2023-04-25T03:49:54;5.88;;;2.38;;
79412;SDS011;68863;49.528;11.010;2023-04-25T03:50:54;7.53;;;2.85;;
79412;SDS011;68863;49.528;11.010;2023-04-25T03:51:55;6.32;;;2.30;;
79412;SDS011;68863;49.528;11.010;2023-04-25T03:52:55;6.90;;;2.60;;
79412;SDS011;68863;49.528;11.010;2023-04-25T03:53:55;6.68;;;2.58;;
79412;SDS011;68863;49.528;11.010;2023-04-25T03:54:55;5.65;;;2.47;;
79412;SDS011;68863;49.528;11.010;2023-04-25T03:55:56;5.93;;;2.70;;
79412;SDS011;68863;49.528;11.010;2023-04-25T03:56:56;6.28;;;2.47;;
79412;SDS011;68863;49.528;11.010;2023-04-25T03:57:57;6.50;;;2.87;;
79412;SDS011;68863;49.528;11.010;2023-04-25T03:58:58;5.35;;;2.70;;
79412;SDS011;68863;49.528;11.010;2023-04-25T03:59:58;6.70;;;2.55;;
79412;SDS011;68863;49.528;11.010;2023-04-25T04:00:58;8.10;;;2.60;;
79412;SDS011;68863;49.528;11.010;2023-04-25T04:01:58;7.13;;;2.80;;
79412;SDS011;68863;49.528;11.010;2023-04-25T04:02:59;6.82;;;3.03;;
79412;SDS011;68863;49.528;11.010;2023-04-25T04:03:59;8.05;;;3.15;;
79412;SDS011;68863;49.528;11.010;2023-04-25T04:05:00;6.97;;;2.83;;
79412;SDS011;68863;49.528;11.010;2023-04-25T04:06:00;7.15;;;2.80;;
79412;SDS011;68863;49.528;11.010;2023-04-25T04:07:00;8.07;;;3.15;;
79412;SDS011;68863;49.528;11.010;2023-04-25T04:08:01;7.10;;;3.03;;
79412;SDS011;68863;49.528;11.010;2023-04-25T04:09:01;7.10;;;2.73;;
79412;SDS011;68863;49.528;11.010;2023-04-25T04:10:02;7.32;;;3.13;;
79412;SDS011;68863;49.528;11.010;2023-04-25T04:11:02;7.10;;;3.30;;
79412;SDS011;68863;49.528;11.010;2023-04-25T04:12:03;6.82;;;3.25;;
79412;SDS011;68863;49.528;11.010;2023-04-25T04:13:03;6.20;;;3.00;;
79412;SDS011;68863;49.528;11.010;2023-04-25T04:14:07;7.87;;;3.50;;
79412;SDS011;68863;49.528;11.010;2023-04-25T04:15:09;9.23;;;2.90;;
79412;SDS011;68863;49.528;11.010;2023-04-25T04:16:09;7.45;;;2.92;;
79412;SDS011;68863;49.528;11.010;2023-04-25T04:17:10;7.28;;;3.00;;
79412;SDS011;68863;49.528;11.010;2023-04-25T04:18:10;6.95;;;3.63;;
79412;SDS011;68863;49.528;11.010;2023-04-25T04:19:11;6.00;;;2.92;;
79412;SDS011;68863;49.528;11.010;2023-04-25T04:20:11;8.27;;;3.80;;
79412;SDS011;68863;49.528;11.010;2023-04-25T04:21:11;6.10;;;3.03;;
79412;SDS011;68863;49.528;11.010;2023-04-25T04:22:11;7.20;;;3.22;;
79412;SDS011;68863;49.528;11.010;2023-04-25T04:23:12;6.43;;;2.80;;
79412;SDS011;68863;49.528;11.010;2023-04-25T04:24:12;6.47;;;2.53;;
79412;SDS011;68863;49.528;11.010;2023-04-25T04:25:13;5.90;;;3.40;;
79412;SDS011;68863;49.528;11.010;2023-04-25T04:26:13;6.43;;;2.85;;
79412;SDS011;68863;49.528;11.010;2023-04-25T04:27:19;6.82;;;3.08;;
79412;SDS011;68863;49.528;11.010;2023-04-25T04:28:20;7.47;;;2.80;;
79412;SDS011;68863;49.528;11.010;2023-04-25T04:29:21;7.10;;;3.58;;
79412;SDS011;68863;49.528;11.010;2023-04-25T04:30:22;7.15;;;3.13;;
79412;SDS011;68863;49.528;11.010;2023-04-25T04:31:29;6.70;;;2.53;;
79412;SDS011;68863;49.528;11.010;2023-04-25T04:32:29;6.78;;;2.80;;
79412;SDS011;68863;49.528;11.010;2023-04-25T04:33:30;7.78;;;4.07;;
79412;SDS011;68863;49.528;11.010;2023-04-25T04:34:31;6.45;;;2.90;;
79412;SDS011;68863;49.528;11.010;2023-04-25T04:35:31;6.37;;;2.77;;
79412;SDS011;68863;49.528;11.010;2023-04-25T04:36:31;7.27;;;3.00;;
79412;SDS011;68863;49.528;11.010;2023-04-25T04:37:32;6.20;;;3.20;;
79412;SDS011;68863;49.528;11.010;2023-04-25T04:38:33;5.68;;;2.63;;
79412;SDS011;68863;49.528;11.010;2023-04-25T04:39:33;6.22;;;3.15;;
79412;SDS011;68863;49.528;11.010;2023-04-25T04:40:34;8.88;;;3.30;;
79412;SDS011;68863;49.528;11.010;2023-04-25T04:41:34;6.55;;;3.38;;
79412;SDS011;68863;49.528;11.010;2023-04-25T04:42:35;7.43;;;3.10;;
79412;SDS011;68863;49.528;11.010;2023-04-25T04:43:36;6.07;;;3.00;;
79412;SDS011;68863;49.528;11.010;2023-04-25T04:44:36;6.13;;;3.03;;
79412;SDS011;68863;49.528;11.010;2023-04-25T04:45:38;5.82;;;2.88;;
79412;SDS011;68863;49.528;11.010;2023-04-25T04:46:40;7.93;;;2.67;;
79412;SDS011;68863;49.528;11.010;2023-04-25T04:47:41;6.25;;;2.75;;
79412;SDS011;68863;49.528;11.010;2023-04-25T04:48:42;6.88;;;3.20;;
79412;SDS011;68863;49.528;11.010;2023-04-25T04:49:44;6.40;;;2.90;;
79412;SDS011;68863;49.528;11.010;2023-04-25T04:50:44;6.80;;;3.20;;
79412;SDS011;68863;49.528;11.010;2023-04-25T04:51:45;6.82;;;2.55;;
79412;SDS011;68863;49.528;11.010;2023-04-25T04:52:45;6.60;;;3.30;;
79412;SDS011;68863;49.528;11.010;2023-04-25T04:53:46;6.97;;;3.28;;
79412;SDS011;68863;49.528;11.010;2023-04-25T04:54:46;7.20;;;3.10;;
79412;SDS011;68863;49.528;11.010;2023-04-25T04:55:46;6.37;;;3.10;;
79412;SDS011;68863;49.528;11.010;2023-04-25T04:56:46;6.70;;;2.80;;
79412;SDS011;68863;49.528;11.010;2023-04-25T04:57:47;6.10;;;3.13;;
79412;SDS011;68863;49.528;11.010;2023-04-25T04:58:47;6.93;;;3.60;;
79412;SDS011;68863;49.528;11.010;2023-04-25T04:59:48;6.20;;;2.38;;
79412;SDS011;68863;49.528;11.010;2023-04-25T05:00:50;5.82;;;3.08;;
79412;SDS011;68863;49.528;11.010;2023-04-25T05:01:50;6.05;;;2.60;;
79412;SDS011;68863;49.528;11.010;2023-04-25T05:02:50;7.80;;;3.43;;
79412;SDS011;68863;49.528;11.010;2023-04-25T05:03:51;6.00;;;2.33;;
79412;SDS011;68863;49.528;11.010;2023-04-25T05:04:52;6.18;;;2.67;;
79412;SDS011;68863;49.528;11.010;2023-04-25T05:05:52;5.97;;;2.72;;
79412;SDS011;68863;49.528;11.010;2023-04-25T05:06:52;6.82;;;3.08;;
79412;SDS011;68863;49.528;11.010;2023-04-25T05:07:53;7.20;;;3.63;;
79412;SDS011;68863;49.528;11.010;2023-04-25T05:08:53;6.65;;;3.20;;
79412;SDS011;68863;49.528;11.010;2023-04-25T05:09:53;6.85;;;3.28;;
79412;SDS011;68863;49.528;11.010;2023-04-25T05:10:53;6.25;;;3.28;;
79412;SDS011;68863;49.528;11.010;2023-04-25T05:11:54;6.18;;;3.15;;
79412;SDS011;68863;49.528;11.010;2023-04-25T05:12:55;7.03;;;3.10;;
79412;SDS011;68863;49.528;11.010;2023-04-25T05:13:55;6.80;;;3.37;;
79412;SDS011;68863;49.528;11.010;2023-04-25T05:14:55;7.53;;;3.17;;
79412;SDS011;68863;49.528;11.010;2023-04-25T05:15:55;6.07;;;2.70;;
79412;SDS011;68863;49.528;11.010;2023-04-25T05:16:56;5.85;;;2.90;;
79412;SDS011;68863;49.528;11.010;2023-04-25T05:17:56;6.20;;;2.63;;
79412;SDS011;68863;49.528;11.010;2023-04-25T05:18:56;7.07;;;3.00;;
79412;SDS011;68863;49.528;11.010;2023-04-25T05:19:56;5.85;;;3.45;;
79412;SDS011;68863;49.528;11.010;2023-04-25T05:20:57;5.57;;;2.55;;
79412;SDS011;68863;49.528;11.010;2023-04-25T05:21:57;5.97;;;3.17;;
79412;SDS011;68863;49.528;11.010;2023-04-25T05:22:57;7.23;;;2.40;;
79412;SDS011;68863;49.528;11.010;2023-04-25T05:23:57;5.80;;;2.83;;
79412;SDS011;68863;49.528;11.010;2023-04-25T05:24:58;5.87;;;2.93;;
79412;SDS011;68863;49.528;11.010;2023-04-25T05:25:58;5.57;;;2.83;;
79412;SDS011;68863;49.528;11.010;2023-04-25T05:26:59;4.97;;;2.25;;
79412;SDS011;68863;49.528;11.010;2023-04-25T05:27:59;8.32;;;2.45;;
79412;SDS011;68863;49.528;11.010;2023-04-25T05:29:00;5.90;;;2.88;;
79412;SDS011;68863;49.528;11.010;2023-04-25T05:30:00;5.28;;;2.28;;
79412;SDS011;68863;49.528;11.010;2023-04-25T05:31:01;5.65;;;2.40;;
79412;SDS011;68863;49.528;11.010;2023-04-25T05:32:01;5.72;;;2.40;;
79412;SDS011;68863;49.528;11.010;2023-04-25T05:33:01;5.90;;;2.30;;
79412;SDS011;68863;49.528;11.010;2023-04-25T05:34:02;5.50;;;2.08;;
79412;SDS011;68863;49.528;11.010;2023-04-25T05:35:02;6.30;;;2.72;;
79412;SDS011;68863;49.528;11.010;2023-04-25T05:36:03;5.72;;;2.10;;
79412;SDS011;68863;49.528;11.010;2023-04-25T05:37:03;4.50;;;1.75;;
79412;SDS011;68863;49.528;11.010;2023-04-25T05:38:06;5.65;;;2.38;;
79412;SDS011;68863;49.528;11.010;2023-04-25T05:39:09;5.50;;;1.77;;
79412;SDS011;68863;49.528;11.010;2023-04-25T05:40:11;5.15;;;1.92;;
79412;SDS011;68863;49.528;11.010;2023-04-25T05:41:12;5.80;;;2.25;;
79412;SDS011;68863;49.528;11.010;2023-04-25T05:42:12;4.78;;;1.80;;
79412;SDS011;68863;49.528;11.010;2023-04-25T05:43:12;4.90;;;1.88;;
79412;SDS011;68863;49.528;11.010;2023-04-25T05:44:13;5.30;;;2.43;;
79412;SDS011;68863;49.528;11.010;2023-04-25T05:45:13;5.00;;;1.80;;
79412;SDS011;68863;49.528;11.010;2023-04-25T05:46:13;5.50;;;2.42;;
79412;SDS011;68863;49.528;11.010;2023-04-25T05:47:13;5.30;;;1.80;;
79412;SDS011;68863;49.528;11.010;2023-04-25T05:48:14;5.00;;;1.87;;
79412;SDS011;68863;49.528;11.010;2023-04-25T05:49:14;5.70;;;1.92;;
79412;SDS011;68863;49.528;11.010;2023-04-25T05:50:14;5.47;;;2.05;;
79412;SDS011;68863;49.528;11.010;2023-04-25T05:51:15;5.22;;;1.98;;
79412;SDS011;68863;49.528;11.010;2023-04-25T05:52:16;5.32;;;1.75;;
79412;SDS011;68863;49.528;11.010;2023-04-25T05:53:16;4.72;;;1.83;;
79412;SDS011;68863;49.528;11.010;2023-04-25T05:54:17;5.75;;;2.45;;
79412;SDS011;68863;49.528;11.010;2023-04-25T05:55:17;5.30;;;2.00;;
79412;SDS011;68863;49.528;11.010;2023-04-25T05:56:17;5.10;;;1.85;;
79412;SDS011;68863;49.528;11.010;2023-04-25T05:57:19;6.00;;;2.33;;
79412;SDS011;68863;49.528;11.010;2023-04-25T05:58:21;5.05;;;1.80;;
79412;SDS011;68863;49.528;11.010;2023-04-25T05:59:21;5.30;;;1.95;;
79412;SDS011;68863;49.528;11.010;2023-04-25T06:00:21;5.03;;;2.10;;
79412;SDS011;68863;49.528;11.010;2023-04-25T06:01:22;5.05;;;2.17;;
79412;SDS011;68863;49.528;11.010;2023-04-25T06:02:23;5.93;;;2.05;;